Thunderstorms From: 15-12-2017 06:00 Until: 16-12-2017 06:00 warning for: Thunderstorms Level: Yellow info button

Although rather usual in this region, locally or potentially dangerous phenomena are expected. (such as local winds, summer thunderstorms, rising streams or high waves) Be aware and pay attention to the latest weather updates, especially if you carry out activities exposed to weather or close to a stream or shoreline. 


Meteo18 Weather Cam more information Meteo18 Weather Cam


warning for Thunderstorms more information blitzortung!


Rain radar more information rain snow radar


Visit our other weather sites:

Template documentation
and downloads

And another site



Weather Underground History page Text

Daily Summary for July 30, 2016 Units:  Metric    English   Both
« Previous Day
Next Day »
Daily Weekly Monthly Yearly Custom
  High: Low: Average:
Temperature: 27.4 °C 13.5 °C 20.2 °C
Dew Point: 16.7 °C 12.7 °C 15 °C
Humidity: 95 % 47 % 74 %
Wind Speed: 16.1 km/h 0.0 km/h 3.8 km/h
Wind Gust: 25.7 km/h - -
Wind:- - West
Pressure: 1015.1 hPa 1012.1 hPa -
Precipitation: 0.0 mm    
Historical Graphs
 
 
Tabular Data for July 30, 2016
Time Temperature Dew Point Pressure Wind Wind Speed Wind Gust Humidity Rainfall Rate (Hourly)
00:02 17.1 °C 14.6 °C 1015.1 hPa Calm     85 % 0.0 mm
00:12 16.9 °C 14.5 °C 1014.8 hPa Calm     86 % 0.0 mm
00:17 17.0 °C 14.6 °C 1014.8 hPa Calm     86 % 0.0 mm
00:22 17.0 °C 14.6 °C 1015.1 hPa Calm     86 % 0.0 mm
00:27 17.0 °C 14.6 °C 1015.1 hPa Calm     86 % 0.0 mm
00:32 17.0 °C 14.6 °C 1014.8 hPa Calm     86 % 0.0 mm
00:37 16.9 °C 14.5 °C 1014.8 hPa Calm     86 % 0.0 mm
00:42 16.8 °C 14.4 °C 1014.8 hPa Calm     86 % 0.0 mm
00:52 16.5 °C 14.5 °C 1015.1 hPa Calm     88 % 0.0 mm
00:57 16.5 °C 14.5 °C 1015.1 hPa Calm     88 % 0.0 mm
01:02 16.4 °C 14.4 °C 1015.1 hPa Calm     88 % 0.0 mm
01:12 16.2 °C 14.2 °C 1015.1 hPa Calm     88 % 0.0 mm
01:17 16.0 °C 14.2 °C 1015.1 hPa Calm     89 % 0.0 mm
01:22 16.0 °C 14.2 °C 1015.1 hPa Calm     89 % 0.0 mm
01:27 15.9 °C 14.1 °C 1015.1 hPa Calm     89 % 0.0 mm
01:32 15.8 °C 14.0 °C 1015.1 hPa Calm     89 % 0.0 mm
01:37 15.7 °C 13.9 °C 1014.8 hPa Calm     89 % 0.0 mm
01:42 15.6 °C 13.8 °C 1014.8 hPa Calm     89 % 0.0 mm
01:47 15.4 °C 13.6 °C 1014.8 hPa Calm     89 % 0.0 mm
01:52 15.2 °C 13.4 °C 1014.8 hPa Calm     89 % 0.0 mm
01:57 15.1 °C 13.3 °C 1014.8 hPa Calm     89 % 0.0 mm
02:02 14.9 °C 13.3 °C 1014.8 hPa Calm     90 % 0.0 mm
02:07 15.0 °C 13.5 °C 1014.8 hPa Calm     91 % 0.0 mm
02:12 15.1 °C 13.6 °C 1014.8 hPa Calm     91 % 0.0 mm
02:17 14.9 °C 13.3 °C 1014.8 hPa Calm     90 % 0.0 mm
02:22 14.8 °C 13.3 °C 1014.8 hPa Calm     91 % 0.0 mm
02:32 15.1 °C 13.8 °C 1014.8 hPa Calm     92 % 0.0 mm
02:37 15.2 °C 13.7 °C 1014.4 hPa Calm     91 % 0.0 mm
02:42 15.3 °C 13.7 °C 1014.8 hPa Calm     90 % 0.0 mm
02:47 15.2 °C 13.6 °C 1014.4 hPa Calm     90 % 0.0 mm
02:52 15.1 °C 13.5 °C 1014.8 hPa Calm     90 % 0.0 mm
02:57 15.1 °C 13.6 °C 1014.8 hPa Calm     91 % 0.0 mm
03:02 15.1 °C 13.8 °C 1014.8 hPa Calm     92 % 0.0 mm
03:12 15.2 °C 13.9 °C 1014.4 hPa Calm     92 % 0.0 mm
03:17 15.1 °C 13.8 °C 1014.4 hPa Calm     92 % 0.0 mm
03:22 15.0 °C 13.7 °C 1014.4 hPa Calm     92 % 0.0 mm
03:27 14.9 °C 13.6 °C 1014.4 hPa Calm     92 % 0.0 mm
03:37 14.6 °C 13.3 °C 1014.8 hPa Calm     92 % 0.0 mm
03:42 14.7 °C 13.6 °C 1014.8 hPa Calm     93 % 0.0 mm
03:52 14.6 °C 13.5 °C 1014.4 hPa Calm     93 % 0.0 mm
03:57 14.6 °C 13.5 °C 1014.4 hPa Calm     93 % 0.0 mm
04:02 14.7 °C 13.7 °C 1014.4 hPa Calm     94 % 0.0 mm
04:12 14.7 °C 13.7 °C 1014.4 hPa Calm     94 % 0.0 mm
04:17 14.7 °C 13.7 °C 1014.4 hPa Calm     94 % 0.0 mm
04:22 14.8 °C 13.8 °C 1014.4 hPa Calm     94 % 0.0 mm
04:32 14.8 °C 13.8 °C 1014.4 hPa Calm     94 % 0.0 mm
04:42 14.6 °C 13.6 °C 1014.4 hPa Calm   1.6 km/h 94 % 0.0 mm
04:47 14.6 °C 13.6 °C 1014.4 hPa Calm     94 % 0.0 mm
04:52 14.6 °C 13.6 °C 1014.4 hPa Calm     94 % 0.0 mm
04:57 14.5 °C 13.5 °C 1014.4 hPa Calm     94 % 0.0 mm
05:02 14.5 °C 13.5 °C 1014.4 hPa Calm     94 % 0.0 mm
05:07 14.4 °C 13.4 °C 1014.8 hPa Calm     94 % 0.0 mm
05:12 14.3 °C 13.3 °C 1014.8 hPa Calm     94 % 0.0 mm
05:17 14.2 °C 13.2 °C 1014.8 hPa Calm   1.6 km/h 94 % 0.0 mm
05:22 14.1 °C 13.1 °C 1014.8 hPa Calm   1.6 km/h 94 % 0.0 mm
05:32 14.0 °C 13.2 °C 1014.8 hPa Calm   1.6 km/h 95 % 0.0 mm
05:37 14.0 °C 13.2 °C 1014.8 hPa Calm   1.6 km/h 95 % 0.0 mm
05:42 14.0 °C 13.2 °C 1014.8 hPa Calm   1.6 km/h 95 % 0.0 mm
05:47 13.9 °C 13.1 °C 1014.8 hPa Calm     95 % 0.0 mm
05:52 13.9 °C 13.1 °C 1014.4 hPa Calm     95 % 0.0 mm
06:02 13.9 °C 13.1 °C 1014.4 hPa Calm     95 % 0.0 mm
06:12 13.8 °C 13.0 °C 1014.4 hPa Calm     95 % 0.0 mm
06:17 13.7 °C 12.9 °C 1014.4 hPa Calm     95 % 0.0 mm
06:22 13.6 °C 12.8 °C 1014.4 hPa Calm     95 % 0.0 mm
06:27 13.6 °C 12.8 °C 1014.4 hPa Calm   1.6 km/h 95 % 0.0 mm
06:32 13.5 °C 12.7 °C 1014.4 hPa Calm   1.6 km/h 95 % 0.0 mm
06:42 13.6 °C 12.8 °C 1014.4 hPa Calm   1.6 km/h 95 % 0.0 mm
06:47 13.6 °C 12.8 °C 1014.4 hPa Calm   1.6 km/h 95 % 0.0 mm
06:52 13.7 °C 12.9 °C 1014.4 hPa Calm   1.6 km/h 95 % 0.0 mm
06:57 13.8 °C 13.0 °C 1014.4 hPa Calm   1.6 km/h 95 % 0.0 mm
07:02 13.8 °C 13.0 °C 1014.4 hPa Calm     95 % 0.0 mm
07:12 14.2 °C 13.4 °C 1014.4 hPa WSW 1.6 km/h   95 % 0.0 mm
07:17 14.4 °C 13.6 °C 1014.4 hPa Calm   3.2 km/h 95 % 0.0 mm
07:22 14.4 °C 13.4 °C 1014.8 hPa Calm   3.2 km/h 94 % 0.0 mm
07:32 15.1 °C 14.3 °C 1014.8 hPa Calm   3.2 km/h 95 % 0.0 mm
07:42 15.3 °C 14.3 °C 1014.8 hPa Calm   1.6 km/h 94 % 0.0 mm
07:47 15.4 °C 14.4 °C 1014.8 hPa Calm   1.6 km/h 94 % 0.0 mm
07:52 15.6 °C 14.6 °C 1014.8 hPa Calm   1.6 km/h 94 % 0.0 mm
07:57 15.7 °C 14.7 °C 1014.8 hPa Calm   1.6 km/h 94 % 0.0 mm
08:02 15.9 °C 14.9 °C 1014.8 hPa Calm   1.6 km/h 94 % 0.0 mm
08:12 16.2 °C 15.2 °C 1014.8 hPa Calm   1.6 km/h 94 % 0.0 mm
08:17 16.4 °C 15.3 °C 1014.8 hPa Calm     93 % 0.0 mm
08:22 16.6 °C 15.3 °C 1014.8 hPa WNW 3.2 km/h   92 % 0.0 mm
08:27 16.7 °C 15.2 °C 1014.8 hPa Calm   3.2 km/h 91 % 0.0 mm
08:37 17.0 °C 15.3 °C 1014.8 hPa Calm   3.2 km/h 90 % 0.0 mm
08:42 17.2 °C 15.5 °C 1014.8 hPa Calm   3.2 km/h 90 % 0.0 mm
08:47 17.3 °C 15.6 °C 1014.8 hPa Calm   1.6 km/h 90 % 0.0 mm
08:52 17.6 °C 15.8 °C 1014.8 hPa Calm   1.6 km/h 89 % 0.0 mm
09:02 18.2 °C 16.0 °C 1014.8 hPa SW 1.6 km/h 1.6 km/h 87 % 0.0 mm
09:12 18.7 °C 16.1 °C 1014.4 hPa Calm   1.6 km/h 85 % 0.0 mm
09:17 18.7 °C 16.1 °C 1014.8 hPa Calm   1.6 km/h 85 % 0.0 mm
09:22 18.9 °C 16.1 °C 1014.8 hPa Calm   1.6 km/h 84 % 0.0 mm
09:32 19.3 °C 16.5 °C 1014.8 hPa Calm   1.6 km/h 84 % 0.0 mm
09:42 19.3 °C 16.3 °C 1015.1 hPa SSW 4.8 km/h 4.8 km/h 83 % 0.0 mm
09:47 19.4 °C 16.2 °C 1015.1 hPa Calm   6.4 km/h 82 % 0.0 mm
09:52 19.5 °C 16.3 °C 1015.1 hPa WSW 1.6 km/h 6.4 km/h 82 % 0.0 mm
09:57 19.4 °C 16.1 °C 1015.1 hPa WSW 3.2 km/h 9.7 km/h 81 % 0.0 mm
10:02 19.5 °C 16.2 °C 1014.8 hPa WSW 11.3 km/h 11.3 km/h 81 % 0.0 mm
10:07 19.4 °C 16.1 °C 1014.8 hPa West 8.0 km/h 14.5 km/h 81 % 0.0 mm
10:12 19.5 °C 16.2 °C 1014.8 hPa Calm   14.5 km/h 81 % 0.0 mm
10:17 19.6 °C 16.2 °C 1015.1 hPa SW 1.6 km/h 14.5 km/h 81 % 0.0 mm
10:22 19.6 °C 16.1 °C 1014.8 hPa WNW 4.8 km/h 14.5 km/h 80 % 0.0 mm
10:27 19.5 °C 16.0 °C 1014.8 hPa West 9.7 km/h 14.5 km/h 80 % 0.0 mm
10:32 19.6 °C 16.2 °C 1014.8 hPa WNW 4.8 km/h 14.5 km/h 81 % 0.0 mm
10:42 19.7 °C 16.2 °C 1014.8 hPa WSW 6.4 km/h 12.9 km/h 80 % 0.0 mm
10:52 19.6 °C 16.1 °C 1014.8 hPa NW 4.8 km/h 16.1 km/h 80 % 0.0 mm
11:02 19.8 °C 16.2 °C 1014.8 hPa SW 4.8 km/h 16.1 km/h 80 % 0.0 mm
11:12 19.9 °C 16.1 °C 1014.8 hPa West 8.0 km/h 14.5 km/h 79 % 0.0 mm
11:17 20.0 °C 16.2 °C 1014.8 hPa WSW 4.8 km/h 14.5 km/h 79 % 0.0 mm
11:22 20.1 °C 16.1 °C 1014.8 hPa West 4.8 km/h 14.5 km/h 78 % 0.0 mm
11:32 20.4 °C 16.2 °C 1014.8 hPa WSW 8.0 km/h 12.9 km/h 77 % 0.0 mm
11:42 20.7 °C 16.3 °C 1014.8 hPa WSW 3.2 km/h 17.7 km/h 76 % 0.0 mm
11:47 20.7 °C 16.3 °C 1014.8 hPa WSW 6.4 km/h 17.7 km/h 76 % 0.0 mm
11:57 20.8 °C 16.2 °C 1014.8 hPa SSW 12.9 km/h 17.7 km/h 75 % 0.0 mm
12:02 20.9 °C 16.1 °C 1014.8 hPa SSW 6.4 km/h 17.7 km/h 74 % 0.0 mm
12:12 21.3 °C 16.3 °C 1014.8 hPa SSW 3.2 km/h 16.1 km/h 73 % 0.0 mm
12:17 21.6 °C 16.6 °C 1014.4 hPa South 14.5 km/h 20.9 km/h 73 % 0.0 mm
12:22 21.9 °C 16.4 °C 1014.4 hPa SW 9.7 km/h 20.9 km/h 71 % 0.0 mm
12:27 22.1 °C 16.6 °C 1014.4 hPa SW 14.5 km/h 20.9 km/h 71 % 0.0 mm
12:32 22.3 °C 16.3 °C 1014.4 hPa SSW 8.0 km/h 22.5 km/h 69 % 0.0 mm
12:42 22.2 °C 16.2 °C 1014.4 hPa SW 9.7 km/h 22.5 km/h 69 % 0.0 mm
12:52 22.4 °C 16.4 °C 1014.4 hPa WSW 9.7 km/h 20.9 km/h 69 % 0.0 mm
12:57 22.6 °C 16.4 °C 1014.4 hPa SW 11.3 km/h 19.3 km/h 68 % 0.0 mm
13:02 22.9 °C 16.7 °C 1014.4 hPa SW 14.5 km/h 19.3 km/h 68 % 0.0 mm
13:12 23.1 °C 16.4 °C 1014.4 hPa SSE 12.9 km/h 19.3 km/h 66 % 0.0 mm
13:17 23.2 °C 16.5 °C 1014.4 hPa South 6.4 km/h 20.9 km/h 66 % 0.0 mm
13:22 23.4 °C 16.4 °C 1014.4 hPa SW 12.9 km/h 22.5 km/h 65 % 0.0 mm
13:32 23.7 °C 16.7 °C 1014.1 hPa South 6.4 km/h 20.9 km/h 65 % 0.0 mm
13:37 23.7 °C 16.0 °C 1014.1 hPa SW 11.3 km/h 20.9 km/h 62 % 0.0 mm
13:42 23.7 °C 16.5 °C 1014.1 hPa SW 8.0 km/h 20.9 km/h 64 % 0.0 mm
13:47 23.6 °C 16.1 °C 1014.1 hPa SW 9.7 km/h 20.9 km/h 63 % 0.0 mm
13:52 23.8 °C 16.1 °C 1013.8 hPa WSW 11.3 km/h 20.9 km/h 62 % 0.0 mm
13:57 24.1 °C 16.6 °C 1013.8 hPa SW 11.3 km/h 19.3 km/h 63 % 0.0 mm
14:02 24.1 °C 16.4 °C 1013.8 hPa SW 9.7 km/h 19.3 km/h 62 % 0.0 mm
14:12 24.5 °C 16.2 °C 1013.8 hPa SW 11.3 km/h 25.7 km/h 60 % 0.0 mm
14:17 24.2 °C 16.2 °C 1013.8 hPa SW 3.2 km/h 25.7 km/h 61 % 0.0 mm
14:22 24.1 °C 16.1 °C 1013.8 hPa SW 12.9 km/h 20.9 km/h 61 % 0.0 mm
14:27 24.4 °C 16.1 °C 1013.8 hPa ENE 3.2 km/h 20.9 km/h 60 % 0.0 mm
14:32 24.7 °C 16.1 °C 1013.8 hPa SW 4.8 km/h 20.9 km/h 59 % 0.0 mm
14:37 25.1 °C 16.5 °C 1013.4 hPa SW 11.3 km/h 20.9 km/h 59 % 0.0 mm
14:42 24.9 °C 16.1 °C 1013.4 hPa SSW 8.0 km/h 20.9 km/h 58 % 0.0 mm
14:47 24.9 °C 16.1 °C 1013.4 hPa SSW 9.7 km/h 22.5 km/h 58 % 0.0 mm
14:52 24.9 °C 16.1 °C 1013.4 hPa SW 4.8 km/h 22.5 km/h 58 % 0.0 mm
14:57 25.1 °C 16.0 °C 1013.4 hPa WSW 4.8 km/h 19.3 km/h 57 % 0.0 mm
15:02 25.3 °C 16.2 °C 1013.4 hPa West 8.0 km/h 19.3 km/h 57 % 0.0 mm
15:12 25.8 °C 16.1 °C 1013.1 hPa SW 9.7 km/h 16.1 km/h 55 % 0.0 mm
15:17 26.1 °C 16.1 °C 1013.4 hPa WSW 4.8 km/h 14.5 km/h 54 % 0.0 mm
15:22 26.1 °C 16.1 °C 1013.1 hPa West 12.9 km/h 14.5 km/h 54 % 0.0 mm
15:27 26.0 °C 16.3 °C 1013.1 hPa Calm   16.1 km/h 55 % 0.0 mm
15:32 25.9 °C 15.9 °C 1013.1 hPa WSW 11.3 km/h 16.1 km/h 54 % 0.0 mm
15:37 25.8 °C 15.8 °C 1013.1 hPa West 6.4 km/h 19.3 km/h 54 % 0.0 mm
15:42 26.1 °C 16.1 °C 1013.1 hPa West 6.4 km/h 19.3 km/h 54 % 0.0 mm
15:47 26.4 °C 16.0 °C 1013.1 hPa SW 14.5 km/h 19.3 km/h 53 % 0.0 mm
15:57 26.3 °C 16.0 °C 1013.1 hPa West 4.8 km/h 20.9 km/h 53 % 0.0 mm
16:02 26.4 °C 15.8 °C 1013.1 hPa SSW 6.4 km/h 20.9 km/h 52 % 0.0 mm
16:12 26.4 °C 15.8 °C 1012.8 hPa West 6.4 km/h 20.9 km/h 52 % 0.0 mm
16:17 26.6 °C 16.5 °C 1012.8 hPa West 6.4 km/h 17.7 km/h 54 % 0.0 mm
16:22 26.7 °C 15.4 °C 1012.8 hPa WSW 11.3 km/h 17.7 km/h 50 % 0.0 mm
16:27 26.5 °C 15.5 °C 1012.8 hPa West 4.8 km/h 12.9 km/h 51 % 0.0 mm
16:32 26.4 °C 15.8 °C 1012.8 hPa SW 6.4 km/h 14.5 km/h 52 % 0.0 mm
16:42 26.7 °C 15.7 °C 1012.8 hPa West 12.9 km/h 14.5 km/h 51 % 0.0 mm
16:47 26.5 °C 15.2 °C 1012.8 hPa SW 6.4 km/h 19.3 km/h 50 % 0.0 mm
16:52 26.6 °C 15.6 °C 1012.8 hPa West 4.8 km/h 19.3 km/h 51 % 0.0 mm
16:57 27.0 °C 15.7 °C 1012.8 hPa West 4.8 km/h 19.3 km/h 50 % 0.0 mm
17:02 26.7 °C 15.1 °C 1012.8 hPa SW 1.6 km/h 16.1 km/h 49 % 0.0 mm
17:12 26.8 °C 14.9 °C 1012.8 hPa WSW 11.3 km/h 16.1 km/h 48 % 0.0 mm
17:17 26.9 °C 15.3 °C 1012.8 hPa SW 16.1 km/h 16.1 km/h 49 % 0.0 mm
17:22 26.8 °C 15.2 °C 1012.8 hPa WNW 1.6 km/h 16.1 km/h 49 % 0.0 mm
17:32 27.0 °C 14.7 °C 1012.8 hPa WNW 4.8 km/h 16.1 km/h 47 % 0.0 mm
17:42 27.2 °C 15.6 °C 1012.8 hPa West 6.4 km/h 12.9 km/h 49 % 0.0 mm
17:47 27.1 °C 15.5 °C 1012.8 hPa West 8.0 km/h 14.5 km/h 49 % 0.0 mm
17:52 26.7 °C 15.4 °C 1012.8 hPa SW 9.7 km/h 14.5 km/h 50 % 0.0 mm
17:57 26.7 °C 15.7 °C 1012.4 hPa West 8.0 km/h 14.5 km/h 51 % 0.0 mm
18:07 27.1 °C 15.8 °C 1012.4 hPa West 8.0 km/h 14.5 km/h 50 % 0.0 mm
18:12 27.3 °C 15.6 °C 1012.4 hPa WSW 9.7 km/h 14.5 km/h 49 % 0.0 mm
18:22 27.1 °C 15.8 °C 1012.4 hPa NW 4.8 km/h 16.1 km/h 50 % 0.0 mm
18:32 27.4 °C 15.4 °C 1012.4 hPa WSW 8.0 km/h 12.9 km/h 48 % 0.0 mm
18:37 27.0 °C 15.7 °C 1012.1 hPa WSW 4.8 km/h 12.9 km/h 50 % 0.0 mm
18:42 27.0 °C 15.4 °C 1012.4 hPa WNW 8.0 km/h 19.3 km/h 49 % 0.0 mm
18:52 26.3 °C 15.7 °C 1012.1 hPa NW 4.8 km/h 14.5 km/h 52 % 0.0 mm
18:57 26.4 °C 15.8 °C 1012.4 hPa NNW 3.2 km/h 14.5 km/h 52 % 0.0 mm
19:02 26.6 °C 15.9 °C 1012.1 hPa NW 4.8 km/h 14.5 km/h 52 % 0.0 mm
19:12 26.4 °C 15.8 °C 1012.4 hPa WSW 8.0 km/h 12.9 km/h 52 % 0.0 mm
19:17 26.6 °C 15.9 °C 1012.1 hPa North 6.4 km/h 14.5 km/h 52 % 0.0 mm
19:22 26.6 °C 15.6 °C 1012.4 hPa WNW 3.2 km/h 14.5 km/h 51 % 0.0 mm
19:27 26.6 °C 15.6 °C 1012.1 hPa WNW 4.8 km/h 14.5 km/h 51 % 0.0 mm
19:32 26.7 °C 16.0 °C 1012.1 hPa WNW 1.6 km/h 14.5 km/h 52 % 0.0 mm
19:42 26.5 °C 15.5 °C 1012.1 hPa WNW 9.7 km/h 11.3 km/h 51 % 0.0 mm
19:47 26.3 °C 15.4 °C 1012.1 hPa NW 6.4 km/h 14.5 km/h 51 % 0.0 mm
19:52 26.3 °C 15.7 °C 1012.1 hPa WNW 4.8 km/h 14.5 km/h 52 % 0.0 mm
19:57 26.2 °C 15.6 °C 1012.1 hPa WNW 4.8 km/h 14.5 km/h 52 % 0.0 mm
20:02 26.1 °C 15.8 °C 1012.4 hPa WNW 12.9 km/h 16.1 km/h 53 % 0.0 mm
20:12 25.8 °C 15.5 °C 1012.4 hPa WNW 8.0 km/h 17.7 km/h 53 % 0.0 mm
20:17 25.6 °C 15.6 °C 1012.1 hPa West 3.2 km/h 17.7 km/h 54 % 0.0 mm
20:22 25.5 °C 15.5 °C 1012.1 hPa West 6.4 km/h 16.1 km/h 54 % 0.0 mm
20:32 25.2 °C 15.2 °C 1012.4 hPa NW 4.8 km/h 12.9 km/h 54 % 0.0 mm
20:37 24.9 °C 15.2 °C 1012.4 hPa NW 3.2 km/h 12.9 km/h 55 % 0.0 mm
20:42 24.6 °C 15.2 °C 1012.4 hPa NW 1.6 km/h 12.9 km/h 56 % 0.0 mm
20:47 24.5 °C 15.4 °C 1012.4 hPa WNW 3.2 km/h 11.3 km/h 57 % 0.0 mm
20:52 24.3 °C 15.5 °C 1012.4 hPa NW 1.6 km/h 9.7 km/h 58 % 0.0 mm
21:02 23.9 °C 15.4 °C 1012.4 hPa NW 6.4 km/h 8.0 km/h 59 % 0.0 mm
21:12 23.3 °C 15.4 °C 1012.4 hPa NNW 4.8 km/h 8.0 km/h 61 % 0.0 mm
21:17 23.0 °C 15.3 °C 1012.4 hPa NNW 3.2 km/h 9.7 km/h 62 % 0.0 mm
21:22 22.8 °C 15.4 °C 1012.8 hPa WNW 3.2 km/h 9.7 km/h 63 % 0.0 mm
21:27 22.6 °C 15.2 °C 1012.4 hPa NW 3.2 km/h 9.7 km/h 63 % 0.0 mm
21:32 22.4 °C 15.3 °C 1012.8 hPa WNW 1.6 km/h 8.0 km/h 64 % 0.0 mm
21:42 22.1 °C 15.0 °C 1012.8 hPa NW 1.6 km/h 8.0 km/h 64 % 0.0 mm
21:47 21.9 °C 14.8 °C 1012.8 hPa NNW 1.6 km/h 8.0 km/h 64 % 0.0 mm
21:52 21.7 °C 14.8 °C 1013.1 hPa North 1.6 km/h 8.0 km/h 65 % 0.0 mm
22:02 21.2 °C 14.8 °C 1013.1 hPa NNW 3.2 km/h 6.4 km/h 67 % 0.0 mm
22:07 21.2 °C 14.8 °C 1013.1 hPa NNW 1.6 km/h 6.4 km/h 67 % 0.0 mm
22:12 21.1 °C 14.7 °C 1013.1 hPa NNW 4.8 km/h 6.4 km/h 67 % 0.0 mm
22:17 21.1 °C 14.7 °C 1013.1 hPa NNW 3.2 km/h 6.4 km/h 67 % 0.0 mm
22:22 21.0 °C 14.6 °C 1013.1 hPa NNW 1.6 km/h 6.4 km/h 67 % 0.0 mm
22:32 20.8 °C 14.7 °C 1013.1 hPa NNW 1.6 km/h 6.4 km/h 68 % 0.0 mm
22:42 20.7 °C 14.8 °C 1013.4 hPa NNW 1.6 km/h 3.2 km/h 69 % 0.0 mm
22:47 20.7 °C 14.8 °C 1013.4 hPa NNW 3.2 km/h 3.2 km/h 69 % 0.0 mm
22:52 20.6 °C 14.7 °C 1013.4 hPa NNW 3.2 km/h 3.2 km/h 69 % 0.0 mm
22:57 20.4 °C 14.7 °C 1013.4 hPa NNW 3.2 km/h 4.8 km/h 70 % 0.0 mm
23:02 20.3 °C 14.6 °C 1013.4 hPa North 6.4 km/h 6.4 km/h 70 % 0.0 mm
23:12 20.0 °C 14.4 °C 1013.4 hPa NNW 3.2 km/h 8.0 km/h 70 % 0.0 mm
23:17 19.8 °C 13.9 °C 1013.4 hPa NW 3.2 km/h 14.5 km/h 69 % 0.0 mm
23:22 19.8 °C 13.9 °C 1013.4 hPa NNW 4.8 km/h 14.5 km/h 69 % 0.0 mm
23:32 19.7 °C 13.9 °C 1013.4 hPa NNW 4.8 km/h 12.9 km/h 69 % 0.0 mm
23:37 19.6 °C 13.8 °C 1013.4 hPa NNW 3.2 km/h 9.7 km/h 69 % 0.0 mm
23:42 19.6 °C 13.5 °C 1013.1 hPa NW 6.4 km/h 9.7 km/h 68 % 0.0 mm
23:47 19.7 °C 13.6 °C 1013.1 hPa NNW 6.4 km/h 12.9 km/h 68 % 0.0 mm
23:52 19.7 °C 13.6 °C 1013.1 hPa WNW 4.8 km/h 12.9 km/h 68 % 0.0 mm
Meteo18
Compliments of Weather Underground - 4 mb

Script developed by  Jim McMurry - jmcmurry@mwt.net Adapted for the template by  Wim van der Kuil - Leuven-Template.eu

You find our weather info also at:

European Weather Network

Weather Underground

Equipment we use:

Weather-station
Davis Vue

Weather-program
Meteohub

Weather-server
Raspberry PI 2 B+

Provider
1 and 1

Davis Vue

Meteohub

Raspberry PI 2 B+

1 and 1